sensor_id;sensor_type;location;lat;lon;timestamp;temperature;humidity
10512;DHT22;5304;48.604;2.096;2023-06-22T03:35:51;20.40;99.90
10512;DHT22;5304;48.604;2.096;2023-06-22T03:38:35;20.30;99.90
10512;DHT22;5304;48.604;2.096;2023-06-22T03:41:19;20.30;99.90
10512;DHT22;5304;48.604;2.096;2023-06-22T03:44:04;20.30;99.90
10512;DHT22;5304;48.604;2.096;2023-06-22T03:46:48;20.30;99.90
10512;DHT22;5304;48.604;2.096;2023-06-22T03:49:33;20.30;99.90
10512;DHT22;5304;48.604;2.096;2023-06-22T03:52:18;20.30;99.90
10512;DHT22;5304;48.604;2.096;2023-06-22T03:55:03;20.30;99.90
10512;DHT22;5304;48.604;2.096;2023-06-22T03:57:47;20.30;99.90
10512;DHT22;5304;48.604;2.096;2023-06-22T04:00:32;20.30;99.90
10512;DHT22;5304;48.604;2.096;2023-06-22T04:03:17;20.30;99.90
10512;DHT22;5304;48.604;2.096;2023-06-22T04:06:04;20.40;99.90
10512;DHT22;5304;48.604;2.096;2023-06-22T04:08:48;20.40;99.90
10512;DHT22;5304;48.604;2.096;2023-06-22T04:11:34;20.50;99.90
10512;DHT22;5304;48.604;2.096;2023-06-22T04:14:19;20.50;99.90
10512;DHT22;5304;48.604;2.096;2023-06-22T04:17:03;20.50;99.90
10512;DHT22;5304;48.604;2.096;2023-06-22T04:19:47;20.40;99.90
10512;DHT22;5304;48.604;2.096;2023-06-22T04:22:32;20.40;99.90
10512;DHT22;5304;48.604;2.096;2023-06-22T04:25:16;20.40;99.90
10512;DHT22;5304;48.604;2.096;2023-06-22T04:28:01;20.40;99.90
10512;DHT22;5304;48.604;2.096;2023-06-22T04:30:47;20.40;99.90
10512;DHT22;5304;48.604;2.096;2023-06-22T04:33:32;20.30;99.90
10512;DHT22;5304;48.604;2.096;2023-06-22T04:36:16;20.30;99.90
10512;DHT22;5304;48.604;2.096;2023-06-22T04:39:00;20.20;99.90
10512;DHT22;5304;48.604;2.096;2023-06-22T04:41:45;20.10;99.90
10512;DHT22;5304;48.604;2.096;2023-06-22T04:44:29;20.00;99.90
10512;DHT22;5304;48.604;2.096;2023-06-22T04:47:13;19.90;99.90
10512;DHT22;5304;48.604;2.096;2023-06-22T04:49:58;19.90;99.90
10512;DHT22;5304;48.604;2.096;2023-06-22T04:52:42;19.80;99.90
10512;DHT22;5304;48.604;2.096;2023-06-22T04:55:26;19.90;99.90
10512;DHT22;5304;48.604;2.096;2023-06-22T04:58:10;19.80;99.90
10512;DHT22;5304;48.604;2.096;2023-06-22T05:00:56;19.70;99.90
10512;DHT22;5304;48.604;2.096;2023-06-22T05:03:40;19.60;99.90
10512;DHT22;5304;48.604;2.096;2023-06-22T05:06:26;19.50;99.90
10512;DHT22;5304;48.604;2.096;2023-06-22T05:09:10;19.50;99.90
10512;DHT22;5304;48.604;2.096;2023-06-22T05:11:56;19.50;99.90
10512;DHT22;5304;48.604;2.096;2023-06-22T05:14:40;19.60;99.90
10512;DHT22;5304;48.604;2.096;2023-06-22T05:17:25;19.40;99.90
10512;DHT22;5304;48.604;2.096;2023-06-22T05:20:12;19.40;99.90
10512;DHT22;5304;48.604;2.096;2023-06-22T05:22:56;19.40;99.90
10512;DHT22;5304;48.604;2.096;2023-06-22T05:25:41;19.40;99.90
10512;DHT22;5304;48.604;2.096;2023-06-22T05:28:25;19.40;99.90
10512;DHT22;5304;48.604;2.096;2023-06-22T05:31:09;19.40;99.90
10512;DHT22;5304;48.604;2.096;2023-06-22T05:33:54;19.30;99.90
10512;DHT22;5304;48.604;2.096;2023-06-22T05:36:38;19.30;99.90
10512;DHT22;5304;48.604;2.096;2023-06-22T05:39:23;19.20;99.90
10512;DHT22;5304;48.604;2.096;2023-06-22T05:42:07;19.20;99.90
10512;DHT22;5304;48.604;2.096;2023-06-22T05:44:53;19.20;99.90
10512;DHT22;5304;48.604;2.096;2023-06-22T05:47:37;19.20;99.90
10512;DHT22;5304;48.604;2.096;2023-06-22T05:50:21;19.20;99.90
10512;DHT22;5304;48.604;2.096;2023-06-22T05:53:06;19.20;99.90
10512;DHT22;5304;48.604;2.096;2023-06-22T05:55:51;19.20;99.90
10512;DHT22;5304;48.604;2.096;2023-06-22T05:58:35;19.10;99.90
10512;DHT22;5304;48.604;2.096;2023-06-22T06:01:19;19.10;99.90
10512;DHT22;5304;48.604;2.096;2023-06-22T06:04:04;19.00;99.90
10512;DHT22;5304;48.604;2.096;2023-06-22T06:06:49;19.00;99.90
10512;DHT22;5304;48.604;2.096;2023-06-22T06:09:33;19.00;99.90
10512;DHT22;5304;48.604;2.096;2023-06-22T06:12:17;19.00;99.90
10512;DHT22;5304;48.604;2.096;2023-06-22T06:15:02;18.90;99.90
10512;DHT22;5304;48.604;2.096;2023-06-22T06:17:53;18.80;99.90
10512;DHT22;5304;48.604;2.096;2023-06-22T06:20:37;18.80;99.90
10512;DHT22;5304;48.604;2.096;2023-06-22T06:23:21;18.80;99.90
10512;DHT22;5304;48.604;2.096;2023-06-22T06:26:06;18.80;99.90
10512;DHT22;5304;48.604;2.096;2023-06-22T06:28:51;18.70;99.90
10512;DHT22;5304;48.604;2.096;2023-06-22T06:31:35;18.80;99.90
10512;DHT22;5304;48.604;2.096;2023-06-22T06:34:19;18.80;99.90
10512;DHT22;5304;48.604;2.096;2023-06-22T06:37:04;18.80;99.90
10512;DHT22;5304;48.604;2.096;2023-06-22T06:39:48;18.80;99.90
10512;DHT22;5304;48.604;2.096;2023-06-22T06:42:32;18.80;99.90
10512;DHT22;5304;48.604;2.096;2023-06-22T06:45:19;18.80;99.90
10512;DHT22;5304;48.604;2.096;2023-06-22T06:48:03;18.80;99.90
10512;DHT22;5304;48.604;2.096;2023-06-22T06:50:47;18.80;99.90
10512;DHT22;5304;48.604;2.096;2023-06-22T06:53:32;18.70;99.90
10512;DHT22;5304;48.604;2.096;2023-06-22T06:56:16;18.70;99.90
10512;DHT22;5304;48.604;2.096;2023-06-22T06:59:00;18.70;99.90
10512;DHT22;5304;48.604;2.096;2023-06-22T07:01:45;18.70;99.90
10512;DHT22;5304;48.604;2.096;2023-06-22T07:04:29;18.60;99.90
10512;DHT22;5304;48.604;2.096;2023-06-22T07:07:13;18.60;99.90
10512;DHT22;5304;48.604;2.096;2023-06-22T07:09:58;18.60;99.90
10512;DHT22;5304;48.604;2.096;2023-06-22T07:12:42;18.60;99.90
10512;DHT22;5304;48.604;2.096;2023-06-22T07:15:27;18.70;99.90
10512;DHT22;5304;48.604;2.096;2023-06-22T07:18:11;18.70;99.90
10512;DHT22;5304;48.604;2.096;2023-06-22T07:20:55;18.70;99.90
10512;DHT22;5304;48.604;2.096;2023-06-22T07:23:39;18.70;99.90
10512;DHT22;5304;48.604;2.096;2023-06-22T07:26:24;18.70;99.90
10512;DHT22;5304;48.604;2.096;2023-06-22T07:29:08;18.70;99.90
10512;DHT22;5304;48.604;2.096;2023-06-22T07:31:52;18.70;99.90
10512;DHT22;5304;48.604;2.096;2023-06-22T07:34:36;18.70;99.90
10512;DHT22;5304;48.604;2.096;2023-06-22T07:37:21;18.70;99.90
10512;DHT22;5304;48.604;2.096;2023-06-22T07:40:06;18.70;99.90
10512;DHT22;5304;48.604;2.096;2023-06-22T07:42:50;18.70;99.90
10512;DHT22;5304;48.604;2.096;2023-06-22T07:45:38;18.70;99.90
10512;DHT22;5304;48.604;2.096;2023-06-22T07:48:24;18.70;99.90
10512;DHT22;5304;48.604;2.096;2023-06-22T07:51:08;18.70;99.90
10512;DHT22;5304;48.604;2.096;2023-06-22T07:53:52;18.80;99.90
10512;DHT22;5304;48.604;2.096;2023-06-22T07:56:37;18.80;99.90
10512;DHT22;5304;48.604;2.096;2023-06-22T07:59:21;18.70;99.90
10512;DHT22;5304;48.604;2.096;2023-06-22T08:02:05;18.70;99.90
10512;DHT22;5304;48.604;2.096;2023-06-22T08:04:51;18.70;99.90
10512;DHT22;5304;48.604;2.096;2023-06-22T08:07:35;18.70;99.90
10512;DHT22;5304;48.604;2.096;2023-06-22T08:10:21;18.80;99.90
10512;DHT22;5304;48.604;2.096;2023-06-22T08:13:05;18.80;99.90
10512;DHT22;5304;48.604;2.096;2023-06-22T08:15:49;18.80;99.90
10512;DHT22;5304;48.604;2.096;2023-06-22T08:18:34;18.80;99.90
10512;DHT22;5304;48.604;2.096;2023-06-22T08:21:18;18.80;99.90
10512;DHT22;5304;48.604;2.096;2023-06-22T08:24:03;18.80;99.90
10512;DHT22;5304;48.604;2.096;2023-06-22T08:26:47;18.80;99.90
10512;DHT22;5304;48.604;2.096;2023-06-22T08:29:31;18.80;99.90
10512;DHT22;5304;48.604;2.096;2023-06-22T08:32:16;18.80;99.90
10512;DHT22;5304;48.604;2.096;2023-06-22T08:35:00;18.70;99.90
10512;DHT22;5304;48.604;2.096;2023-06-22T08:37:44;18.60;99.90
10512;DHT22;5304;48.604;2.096;2023-06-22T08:40:35;18.60;99.90
10512;DHT22;5304;48.604;2.096;2023-06-22T08:43:20;18.70;99.90
10512;DHT22;5304;48.604;2.096;2023-06-22T08:46:04;18.70;99.90
10512;DHT22;5304;48.604;2.096;2023-06-22T08:48:49;18.80;99.90
10512;DHT22;5304;48.604;2.096;2023-06-22T08:51:35;18.80;99.90
10512;DHT22;5304;48.604;2.096;2023-06-22T08:54:20;18.80;99.90
10512;DHT22;5304;48.604;2.096;2023-06-22T08:57:04;18.80;99.90
10512;DHT22;5304;48.604;2.096;2023-06-22T08:59:48;18.80;99.90
10512;DHT22;5304;48.604;2.096;2023-06-22T09:02:33;18.80;99.90
10512;DHT22;5304;48.604;2.096;2023-06-22T09:05:17;18.80;99.90
10512;DHT22;5304;48.604;2.096;2023-06-22T09:08:02;18.90;99.90
10512;DHT22;5304;48.604;2.096;2023-06-22T09:10:46;18.80;99.90
10512;DHT22;5304;48.604;2.096;2023-06-22T09:13:31;18.90;99.90
10512;DHT22;5304;48.604;2.096;2023-06-22T09:16:15;18.90;99.90
10512;DHT22;5304;48.604;2.096;2023-06-22T09:19:00;18.90;99.90
10512;DHT22;5304;48.604;2.096;2023-06-22T09:21:44;18.90;99.90
10512;DHT22;5304;48.604;2.096;2023-06-22T09:24:28;19.00;99.90
10512;DHT22;5304;48.604;2.096;2023-06-22T09:27:12;18.90;99.90
10512;DHT22;5304;48.604;2.096;2023-06-22T09:29:57;18.90;99.90
10512;DHT22;5304;48.604;2.096;2023-06-22T09:32:42;19.00;99.90
10512;DHT22;5304;48.604;2.096;2023-06-22T09:35:27;19.00;99.90
10512;DHT22;5304;48.604;2.096;2023-06-22T09:38:12;19.10;99.90
10512;DHT22;5304;48.604;2.096;2023-06-22T09:40:56;19.20;99.90
10512;DHT22;5304;48.604;2.096;2023-06-22T09:43:40;19.30;99.90
10512;DHT22;5304;48.604;2.096;2023-06-22T09:46:24;19.40;99.90
10512;DHT22;5304;48.604;2.096;2023-06-22T09:49:09;19.40;99.90
10512;DHT22;5304;48.604;2.096;2023-06-22T09:51:53;19.50;99.90
10512;DHT22;5304;48.604;2.096;2023-06-22T09:54:38;19.60;99.90
10512;DHT22;5304;48.604;2.096;2023-06-22T09:57:22;19.70;99.90
10512;DHT22;5304;48.604;2.096;2023-06-22T10:00:07;19.80;99.90
10512;DHT22;5304;48.604;2.096;2023-06-22T10:02:58;19.90;99.90
10512;DHT22;5304;48.604;2.096;2023-06-22T10:05:42;19.80;99.90
10512;DHT22;5304;48.604;2.096;2023-06-22T10:08:27;19.80;99.90
10512;DHT22;5304;48.604;2.096;2023-06-22T10:11:11;20.00;99.90
10512;DHT22;5304;48.604;2.096;2023-06-22T10:13:55;20.10;99.90
10512;DHT22;5304;48.604;2.096;2023-06-22T10:16:40;20.10;99.90
10512;DHT22;5304;48.604;2.096;2023-06-22T10:19:25;20.10;99.90
10512;DHT22;5304;48.604;2.096;2023-06-22T10:22:09;20.20;99.90
10512;DHT22;5304;48.604;2.096;2023-06-22T10:24:53;20.20;99.90
10512;DHT22;5304;48.604;2.096;2023-06-22T10:27:38;20.30;99.90
10512;DHT22;5304;48.604;2.096;2023-06-22T10:30:25;20.40;99.90
10512;DHT22;5304;48.604;2.096;2023-06-22T10:33:11;20.40;99.90
10512;DHT22;5304;48.604;2.096;2023-06-22T10:35:55;20.30;99.90
10512;DHT22;5304;48.604;2.096;2023-06-22T10:38:39;20.50;99.90
10512;DHT22;5304;48.604;2.096;2023-06-22T10:41:23;20.50;99.90
10512;DHT22;5304;48.604;2.096;2023-06-22T10:44:08;20.50;99.90
10512;DHT22;5304;48.604;2.096;2023-06-22T10:46:52;20.50;99.90
10512;DHT22;5304;48.604;2.096;2023-06-22T10:49:40;20.70;99.90
10512;DHT22;5304;48.604;2.096;2023-06-22T10:52:24;20.60;99.90
10512;DHT22;5304;48.604;2.096;2023-06-22T10:55:09;20.70;99.90
10512;DHT22;5304;48.604;2.096;2023-06-22T10:57:53;20.70;99.90
10512;DHT22;5304;48.604;2.096;2023-06-22T11:00:38;20.80;99.90
10512;DHT22;5304;48.604;2.096;2023-06-22T11:03:22;20.80;99.90
10512;DHT22;5304;48.604;2.096;2023-06-22T11:06:06;20.80;99.90
10512;DHT22;5304;48.604;2.096;2023-06-22T11:08:50;20.80;99.90
10512;DHT22;5304;48.604;2.096;2023-06-22T11:11:36;20.80;99.90
10512;DHT22;5304;48.604;2.096;2023-06-22T11:14:21;20.90;99.90
10512;DHT22;5304;48.604;2.096;2023-06-22T11:17:06;21.00;99.90
10512;DHT22;5304;48.604;2.096;2023-06-22T11:19:51;21.00;99.90
10512;DHT22;5304;48.604;2.096;2023-06-22T11:22:35;21.10;99.90
10512;DHT22;5304;48.604;2.096;2023-06-22T11:25:19;21.30;99.90
10512;DHT22;5304;48.604;2.096;2023-06-22T11:28:04;21.30;99.90
10512;DHT22;5304;48.604;2.096;2023-06-22T11:30:49;21.30;99.90
10512;DHT22;5304;48.604;2.096;2023-06-22T11:33:33;21.40;99.90
10512;DHT22;5304;48.604;2.096;2023-06-22T11:36:17;21.50;99.90
10512;DHT22;5304;48.604;2.096;2023-06-22T11:39:02;21.60;99.90
10512;DHT22;5304;48.604;2.096;2023-06-22T11:41:47;21.50;99.90
10512;DHT22;5304;48.604;2.096;2023-06-22T11:44:30;21.60;99.90
10512;DHT22;5304;48.604;2.096;2023-06-22T11:47:15;21.70;99.90
10512;DHT22;5304;48.604;2.096;2023-06-22T11:49:59;21.60;99.90
10512;DHT22;5304;48.604;2.096;2023-06-22T11:52:43;21.60;99.90
10512;DHT22;5304;48.604;2.096;2023-06-22T11:55:27;21.60;99.90
10512;DHT22;5304;48.604;2.096;2023-06-22T11:58:11;21.70;99.90
10512;DHT22;5304;48.604;2.096;2023-06-22T12:00:56;21.80;99.90
10512;DHT22;5304;48.604;2.096;2023-06-22T12:03:40;22.00;99.90
10512;DHT22;5304;48.604;2.096;2023-06-22T12:06:24;22.00;99.90
10512;DHT22;5304;48.604;2.096;2023-06-22T12:09:09;22.10;99.90
10512;DHT22;5304;48.604;2.096;2023-06-22T12:11:54;22.10;99.90
10512;DHT22;5304;48.604;2.096;2023-06-22T12:14:38;22.10;99.90
10512;DHT22;5304;48.604;2.096;2023-06-22T12:17:22;22.10;99.90
10512;DHT22;5304;48.604;2.096;2023-06-22T12:20:07;22.10;99.90
10512;DHT22;5304;48.604;2.096;2023-06-22T12:22:51;22.00;99.90
10512;DHT22;5304;48.604;2.096;2023-06-22T12:25:38;21.80;99.90
10512;DHT22;5304;48.604;2.096;2023-06-22T12:28:22;21.70;99.90
10512;DHT22;5304;48.604;2.096;2023-06-22T12:31:07;21.60;99.90
10512;DHT22;5304;48.604;2.096;2023-06-22T12:33:51;21.60;99.90
10512;DHT22;5304;48.604;2.096;2023-06-22T12:36:35;21.70;99.90
10512;DHT22;5304;48.604;2.096;2023-06-22T12:39:19;21.70;99.90
10512;DHT22;5304;48.604;2.096;2023-06-22T12:42:04;21.80;99.90
10512;DHT22;5304;48.604;2.096;2023-06-22T12:44:49;21.80;99.90
10512;DHT22;5304;48.604;2.096;2023-06-22T12:47:33;21.70;99.90
10512;DHT22;5304;48.604;2.096;2023-06-22T12:50:18;21.80;99.90
10512;DHT22;5304;48.604;2.096;2023-06-22T12:53:02;21.80;99.90
10512;DHT22;5304;48.604;2.096;2023-06-22T12:55:48;21.90;99.90
10512;DHT22;5304;48.604;2.096;2023-06-22T12:58:32;22.10;99.90
10512;DHT22;5304;48.604;2.096;2023-06-22T13:01:16;22.20;99.90
10512;DHT22;5304;48.604;2.096;2023-06-22T13:04:02;22.10;99.90
10512;DHT22;5304;48.604;2.096;2023-06-22T13:06:47;22.10;99.90
10512;DHT22;5304;48.604;2.096;2023-06-22T13:09:31;22.10;99.90
10512;DHT22;5304;48.604;2.096;2023-06-22T13:12:16;22.20;99.90
10512;DHT22;5304;48.604;2.096;2023-06-22T13:15:00;22.20;99.90
10512;DHT22;5304;48.604;2.096;2023-06-22T13:17:47;22.10;99.90
10512;DHT22;5304;48.604;2.096;2023-06-22T13:20:31;22.00;99.90
10512;DHT22;5304;48.604;2.096;2023-06-22T13:23:15;22.00;99.90
10512;DHT22;5304;48.604;2.096;2023-06-22T13:25:59;21.90;99.90
10512;DHT22;5304;48.604;2.096;2023-06-22T13:28:44;21.90;99.90
10512;DHT22;5304;48.604;2.096;2023-06-22T13:31:28;21.90;99.90
10512;DHT22;5304;48.604;2.096;2023-06-22T13:34:12;22.00;99.90
10512;DHT22;5304;48.604;2.096;2023-06-22T13:36:56;22.00;99.90
10512;DHT22;5304;48.604;2.096;2023-06-22T13:39:41;22.00;99.90
10512;DHT22;5304;48.604;2.096;2023-06-22T13:42:25;21.90;99.90
10512;DHT22;5304;48.604;2.096;2023-06-22T13:45:09;21.90;99.90
10512;DHT22;5304;48.604;2.096;2023-06-22T13:47:54;21.90;99.90
10512;DHT22;5304;48.604;2.096;2023-06-22T13:50:38;21.90;99.90
10512;DHT22;5304;48.604;2.096;2023-06-22T13:53:24;22.00;99.90
10512;DHT22;5304;48.604;2.096;2023-06-22T13:56:08;22.00;99.90
10512;DHT22;5304;48.604;2.096;2023-06-22T13:58:52;22.00;99.90
10512;DHT22;5304;48.604;2.096;2023-06-22T14:01:37;22.10;99.90
10512;DHT22;5304;48.604;2.096;2023-06-22T14:04:24;22.10;99.90
10512;DHT22;5304;48.604;2.096;2023-06-22T14:07:08;22.10;99.90
10512;DHT22;5304;48.604;2.096;2023-06-22T14:09:52;22.10;99.90
10512;DHT22;5304;48.604;2.096;2023-06-22T14:12:36;22.10;99.90
10512;DHT22;5304;48.604;2.096;2023-06-22T14:15:20;22.20;99.90
10512;DHT22;5304;48.604;2.096;2023-06-22T14:18:05;22.20;99.90
10512;DHT22;5304;48.604;2.096;2023-06-22T14:20:49;22.30;99.90
10512;DHT22;5304;48.604;2.096;2023-06-22T14:23:33;22.30;99.90
10512;DHT22;5304;48.604;2.096;2023-06-22T14:26:18;22.30;99.90
10512;DHT22;5304;48.604;2.096;2023-06-22T14:29:02;22.40;99.90
10512;DHT22;5304;48.604;2.096;2023-06-22T14:31:47;22.50;99.90
10512;DHT22;5304;48.604;2.096;2023-06-22T14:34:34;22.60;99.90
10512;DHT22;5304;48.604;2.096;2023-06-22T14:37:19;22.70;99.90
10512;DHT22;5304;48.604;2.096;2023-06-22T14:40:04;22.90;99.90
10512;DHT22;5304;48.604;2.096;2023-06-22T14:42:49;23.00;99.90
10512;DHT22;5304;48.604;2.096;2023-06-22T14:45:33;23.10;99.90
10512;DHT22;5304;48.604;2.096;2023-06-22T14:48:17;23.40;99.90
10512;DHT22;5304;48.604;2.096;2023-06-22T14:51:01;23.60;99.90
10512;DHT22;5304;48.604;2.096;2023-06-22T14:53:45;23.80;99.90
10512;DHT22;5304;48.604;2.096;2023-06-22T14:56:30;23.80;99.90
10512;DHT22;5304;48.604;2.096;2023-06-22T14:59:14;23.80;99.90
10512;DHT22;5304;48.604;2.096;2023-06-22T15:01:58;23.90;99.90
10512;DHT22;5304;48.604;2.096;2023-06-22T15:04:42;24.10;99.90
10512;DHT22;5304;48.604;2.096;2023-06-22T15:07:27;24.20;99.90
10512;DHT22;5304;48.604;2.096;2023-06-22T15:10:11;24.30;99.90
10512;DHT22;5304;48.604;2.096;2023-06-22T15:12:55;24.70;99.90
10512;DHT22;5304;48.604;2.096;2023-06-22T15:15:39;24.90;99.90
10512;DHT22;5304;48.604;2.096;2023-06-22T15:18:24;25.10;99.90
10512;DHT22;5304;48.604;2.096;2023-06-22T15:21:08;25.10;99.90
10512;DHT22;5304;48.604;2.096;2023-06-22T15:23:52;25.00;99.90
10512;DHT22;5304;48.604;2.096;2023-06-22T15:26:36;25.00;99.90
10512;DHT22;5304;48.604;2.096;2023-06-22T15:29:20;25.00;99.90
10512;DHT22;5304;48.604;2.096;2023-06-22T15:32:06;24.80;99.90
10512;DHT22;5304;48.604;2.096;2023-06-22T15:34:50;24.70;99.90
10512;DHT22;5304;48.604;2.096;2023-06-22T15:37:37;24.50;99.90
10512;DHT22;5304;48.604;2.096;2023-06-22T15:40:21;24.50;99.90
10512;DHT22;5304;48.604;2.096;2023-06-22T15:43:05;24.60;99.90
10512;DHT22;5304;48.604;2.096;2023-06-22T15:45:49;24.50;99.90
10512;DHT22;5304;48.604;2.096;2023-06-22T15:48:34;24.50;99.90
10512;DHT22;5304;48.604;2.096;2023-06-22T15:51:18;24.50;99.90
10512;DHT22;5304;48.604;2.096;2023-06-22T15:54:03;24.70;99.90
10512;DHT22;5304;48.604;2.096;2023-06-22T15:56:47;24.70;99.90
10512;DHT22;5304;48.604;2.096;2023-06-22T15:59:32;24.40;99.90
10512;DHT22;5304;48.604;2.096;2023-06-22T16:02:16;24.30;99.90
10512;DHT22;5304;48.604;2.096;2023-06-22T16:05:00;24.40;99.90
10512;DHT22;5304;48.604;2.096;2023-06-22T16:07:46;24.40;99.90
10512;DHT22;5304;48.604;2.096;2023-06-22T16:10:30;24.60;99.90
10512;DHT22;5304;48.604;2.096;2023-06-22T16:13:14;24.70;99.90
10512;DHT22;5304;48.604;2.096;2023-06-22T16:15:59;24.80;99.90
10512;DHT22;5304;48.604;2.096;2023-06-22T16:18:43;24.80;99.90
10512;DHT22;5304;48.604;2.096;2023-06-22T16:21:28;24.80;99.90
10512;DHT22;5304;48.604;2.096;2023-06-22T16:24:12;24.80;99.90
10512;DHT22;5304;48.604;2.096;2023-06-22T16:26:56;24.90;99.90
10512;DHT22;5304;48.604;2.096;2023-06-22T16:29:40;24.90;99.90
10512;DHT22;5304;48.604;2.096;2023-06-22T16:32:24;25.00;99.90
10512;DHT22;5304;48.604;2.096;2023-06-22T16:35:09;24.80;99.90
10512;DHT22;5304;48.604;2.096;2023-06-22T16:37:53;24.60;99.90
10512;DHT22;5304;48.604;2.096;2023-06-22T16:40:38;24.30;99.90
10512;DHT22;5304;48.604;2.096;2023-06-22T16:43:22;24.20;99.90
10512;DHT22;5304;48.604;2.096;2023-06-22T16:46:07;24.10;99.90
10512;DHT22;5304;48.604;2.096;2023-06-22T16:48:51;24.00;99.90
10512;DHT22;5304;48.604;2.096;2023-06-22T16:51:36;23.90;99.90
10512;DHT22;5304;48.604;2.096;2023-06-22T16:54:21;23.80;99.90
10512;DHT22;5304;48.604;2.096;2023-06-22T16:57:06;23.70;99.90
10512;DHT22;5304;48.604;2.096;2023-06-22T16:59:53;23.60;99.90
10512;DHT22;5304;48.604;2.096;2023-06-22T17:02:51;23.60;99.90
10512;DHT22;5304;48.604;2.096;2023-06-22T17:05:36;23.40;99.90
10512;DHT22;5304;48.604;2.096;2023-06-22T17:08:21;23.30;99.90
10512;DHT22;5304;48.604;2.096;2023-06-22T17:11:07;23.30;99.90
10512;DHT22;5304;48.604;2.096;2023-06-22T17:13:52;23.20;99.90
10512;DHT22;5304;48.604;2.096;2023-06-22T17:16:37;23.10;99.90
10512;DHT22;5304;48.604;2.096;2023-06-22T17:19:25;23.10;99.90
10512;DHT22;5304;48.604;2.096;2023-06-22T17:22:10;23.00;99.90
10512;DHT22;5304;48.604;2.096;2023-06-22T17:24:55;23.00;99.90
10512;DHT22;5304;48.604;2.096;2023-06-22T17:27:40;23.10;99.90
10512;DHT22;5304;48.604;2.096;2023-06-22T17:30:24;23.20;99.90
10512;DHT22;5304;48.604;2.096;2023-06-22T17:33:08;23.20;99.90
10512;DHT22;5304;48.604;2.096;2023-06-22T17:35:56;23.20;99.90
10512;DHT22;5304;48.604;2.096;2023-06-22T17:38:41;23.30;99.90
10512;DHT22;5304;48.604;2.096;2023-06-22T17:41:33;23.30;99.90
10512;DHT22;5304;48.604;2.096;2023-06-22T17:44:23;23.30;99.90
10512;DHT22;5304;48.604;2.096;2023-06-22T17:47:07;23.30;99.90
10512;DHT22;5304;48.604;2.096;2023-06-22T17:49:51;23.30;99.90
10512;DHT22;5304;48.604;2.096;2023-06-22T17:52:35;23.30;99.90
10512;DHT22;5304;48.604;2.096;2023-06-22T17:55:23;23.30;99.90
10512;DHT22;5304;48.604;2.096;2023-06-22T17:58:07;23.30;99.90
10512;DHT22;5304;48.604;2.096;2023-06-22T18:00:52;23.30;99.90
10512;DHT22;5304;48.604;2.096;2023-06-22T18:03:36;23.20;99.90
10512;DHT22;5304;48.604;2.096;2023-06-22T18:06:22;23.20;99.90
10512;DHT22;5304;48.604;2.096;2023-06-22T18:09:11;23.20;99.90
10512;DHT22;5304;48.604;2.096;2023-06-22T18:11:58;23.00;99.90
10512;DHT22;5304;48.604;2.096;2023-06-22T18:14:46;22.90;99.90
10512;DHT22;5304;48.604;2.096;2023-06-22T18:17:31;22.90;99.90
10512;DHT22;5304;48.604;2.096;2023-06-22T18:20:15;22.90;99.90
10512;DHT22;5304;48.604;2.096;2023-06-22T18:23:01;22.80;99.90
10512;DHT22;5304;48.604;2.096;2023-06-22T18:25:47;22.80;99.90
10512;DHT22;5304;48.604;2.096;2023-06-22T18:28:33;22.70;99.90
10512;DHT22;5304;48.604;2.096;2023-06-22T18:31:23;22.60;99.90
10512;DHT22;5304;48.604;2.096;2023-06-22T18:34:10;22.50;99.90
10512;DHT22;5304;48.604;2.096;2023-06-22T18:36:59;22.50;99.90
10512;DHT22;5304;48.604;2.096;2023-06-22T18:39:45;22.40;99.90
10512;DHT22;5304;48.604;2.096;2023-06-22T18:42:31;22.40;99.90
10512;DHT22;5304;48.604;2.096;2023-06-22T18:45:22;22.30;99.90
10512;DHT22;5304;48.604;2.096;2023-06-22T18:50:35;22.10;99.90
10512;DHT22;5304;48.604;2.096;2023-06-22T18:56:12;22.10;99.90
10512;DHT22;5304;48.604;2.096;2023-06-22T18:58:57;22.00;99.90
10512;DHT22;5304;48.604;2.096;2023-06-22T19:01:41;22.00;99.90
10512;DHT22;5304;48.604;2.096;2023-06-22T19:04:25;22.00;99.90
10512;DHT22;5304;48.604;2.096;2023-06-22T19:07:10;21.90;99.90
10512;DHT22;5304;48.604;2.096;2023-06-22T19:13:26;21.70;99.90
10512;DHT22;5304;48.604;2.096;2023-06-22T19:16:11;21.70;99.90
10512;DHT22;5304;48.604;2.096;2023-06-22T19:18:57;21.60;99.90
10512;DHT22;5304;48.604;2.096;2023-06-22T19:21:41;21.60;99.90
10512;DHT22;5304;48.604;2.096;2023-06-22T19:24:30;21.50;99.90
10512;DHT22;5304;48.604;2.096;2023-06-22T19:27:16;21.50;99.90
10512;DHT22;5304;48.604;2.096;2023-06-22T19:30:02;21.40;99.90
10512;DHT22;5304;48.604;2.096;2023-06-22T19:32:47;21.40;99.90
10512;DHT22;5304;48.604;2.096;2023-06-22T19:35:32;21.30;99.90
10512;DHT22;5304;48.604;2.096;2023-06-22T19:38:17;21.30;99.90
10512;DHT22;5304;48.604;2.096;2023-06-22T19:41:02;21.20;99.90
10512;DHT22;5304;48.604;2.096;2023-06-22T19:43:46;21.10;99.90
10512;DHT22;5304;48.604;2.096;2023-06-22T19:46:32;21.00;99.90
10512;DHT22;5304;48.604;2.096;2023-06-22T19:49:16;21.00;99.90
10512;DHT22;5304;48.604;2.096;2023-06-22T19:52:07;20.90;99.90
10512;DHT22;5304;48.604;2.096;2023-06-22T19:54:52;20.80;99.90
10512;DHT22;5304;48.604;2.096;2023-06-22T19:57:38;20.70;99.90
10512;DHT22;5304;48.604;2.096;2023-06-22T20:00:23;20.70;99.90
10512;DHT22;5304;48.604;2.096;2023-06-22T20:03:09;20.50;99.90
10512;DHT22;5304;48.604;2.096;2023-06-22T20:05:55;20.50;99.90
10512;DHT22;5304;48.604;2.096;2023-06-22T20:08:50;20.40;99.90
